createdAt,value
2022-11-05T00:01:15.762Z,96.30
2022-11-05T00:02:36.726Z,96.30
2022-11-05T00:03:57.965Z,96.30
2022-11-05T00:05:18.703Z,96.30
2022-11-05T00:06:39.523Z,96.30
2022-11-05T00:08:17.530Z,96.30
2022-11-05T00:09:30.674Z,96.30
2022-11-05T00:10:38.453Z,96.30
2022-11-05T00:11:59.239Z,96.30
2022-11-05T00:13:20.144Z,96.30
2022-11-05T00:14:41.339Z,96.30
2022-11-05T00:16:02.159Z,96.30
2022-11-05T00:17:05.604Z,96.30
2022-11-05T00:18:08.103Z,96.30
2022-11-05T00:19:11.422Z,96.30
2022-11-05T00:20:14.806Z,96.30
2022-11-05T00:21:32.038Z,96.30
2022-11-05T00:23:06.845Z,96.30
2022-11-05T00:24:27.636Z,96.30
2022-11-05T00:25:31.204Z,96.30
2022-11-05T00:26:35.104Z,96.30
2022-11-05T00:27:38.500Z,96.30
2022-11-05T00:28:43.738Z,96.30
2022-11-05T00:29:47.468Z,96.30
2022-11-05T00:30:49.987Z,96.30
2022-11-05T00:31:53.313Z,96.30
2022-11-05T00:33:03.310Z,96.30
2022-11-05T00:34:05.814Z,96.30
2022-11-05T00:35:09.883Z,96.30
2022-11-05T00:36:13.497Z,96.30
2022-11-05T00:37:15.875Z,96.30
2022-11-05T00:38:19.336Z,96.30
2022-11-05T00:39:24.017Z,96.30
2022-11-05T00:40:27.414Z,96.30
2022-11-05T00:41:29.697Z,96.30
2022-11-05T00:42:52.286Z,96.30
2022-11-05T00:44:13.229Z,96.30
2022-11-05T00:45:16.806Z,96.30
2022-11-05T00:46:19.254Z,96.30
2022-11-05T00:47:40.331Z,96.30
2022-11-05T00:49:06.413Z,96.30
2022-11-05T00:50:10.812Z,96.30
2022-11-05T00:51:14.275Z,96.30
2022-11-05T00:52:35.175Z,96.30
2022-11-05T00:53:38.486Z,96.30
2022-11-05T00:54:40.835Z,96.30
2022-11-05T00:55:46.066Z,96.30
2022-11-05T00:56:48.559Z,96.30
2022-11-05T00:57:53.550Z,96.30
2022-11-05T00:58:57.469Z,96.30
2022-11-05T01:00:00.033Z,96.30
2022-11-05T01:01:04.433Z,96.30
2022-11-05T01:02:06.910Z,96.30
2022-11-05T01:03:12.754Z,96.30
2022-11-05T01:04:15.242Z,96.30
2022-11-05T01:05:19.209Z,96.30
2022-11-05T01:06:22.685Z,96.30
2022-11-05T01:07:25.116Z,96.30
2022-11-05T01:08:29.859Z,96.30
2022-11-05T01:09:34.783Z,96.30
2022-11-05T01:10:43.935Z,96.30
2022-11-05T01:11:46.488Z,96.30
2022-11-05T01:12:50.310Z,96.30
2022-11-05T01:13:55.023Z,96.30
2022-11-05T01:14:57.402Z,96.30
2022-11-05T01:16:08.086Z,96.30
2022-11-05T01:17:10.395Z,96.30
2022-11-05T01:18:14.112Z,96.30
2022-11-05T01:19:16.497Z,96.30
2022-11-05T01:20:23.124Z,96.30
2022-11-05T01:21:25.642Z,96.30
2022-11-05T01:22:28.964Z,96.30
2022-11-05T01:23:31.231Z,96.30
2022-11-05T01:24:34.596Z,96.30
2022-11-05T01:25:37.450Z,96.30
2022-11-05T01:26:40.847Z,96.30
2022-11-05T01:27:43.506Z,96.30
2022-11-05T01:28:51.126Z,96.30
2022-11-05T01:29:55.082Z,96.30
2022-11-05T01:30:59.083Z,96.30
2022-11-05T01:32:01.454Z,96.30
2022-11-05T01:33:05.294Z,96.30
2022-11-05T01:34:07.718Z,96.30
2022-11-05T01:35:16.292Z,96.30
2022-11-05T01:36:19.262Z,96.30
2022-11-05T01:37:22.598Z,96.30
2022-11-05T01:38:26.089Z,96.30
2022-11-05T01:39:28.641Z,96.30
2022-11-05T01:40:34.654Z,96.30
2022-11-05T01:41:37.251Z,96.30
2022-11-05T01:42:43.402Z,96.30
2022-11-05T01:43:49.773Z,96.30
2022-11-05T01:45:12.414Z,96.30
2022-11-05T01:46:20.945Z,96.30
2022-11-05T01:47:44.330Z,96.30
2022-11-05T01:48:49.315Z,96.30
2022-11-05T01:49:53.105Z,96.30
2022-11-05T01:51:02.599Z,96.30
2022-11-05T01:52:06.680Z,96.30
2022-11-05T01:53:18.891Z,96.30
2022-11-05T01:54:30.684Z,96.30
2022-11-05T01:55:41.006Z,96.30
2022-11-05T01:57:00.415Z,96.30
2022-11-05T01:58:06.108Z,96.30
2022-11-05T01:59:15.713Z,96.30
2022-11-05T02:00:19.666Z,96.30
2022-11-05T02:01:24.360Z,96.30
2022-11-05T02:02:27.172Z,96.30
2022-11-05T02:03:31.730Z,96.30
2022-11-05T02:04:39.358Z,96.30
2022-11-05T02:05:42.941Z,96.30
2022-11-05T02:06:46.641Z,96.30
2022-11-05T02:07:51.049Z,96.30
2022-11-05T02:08:58.607Z,96.30
2022-11-05T02:10:06.827Z,96.30
2022-11-05T02:11:11.185Z,96.30
2022-11-05T02:12:15.788Z,96.30
2022-11-05T02:13:18.219Z,96.30
2022-11-05T02:14:21.780Z,96.30
2022-11-05T02:15:39.996Z,96.30
2022-11-05T02:16:49.476Z,96.30
2022-11-05T02:18:06.432Z,96.30
2022-11-05T02:20:03.319Z,96.30
2022-11-05T02:21:44.847Z,96.30
2022-11-05T02:23:38.541Z,96.30
2022-11-05T02:25:06.832Z,96.30
2022-11-05T02:26:39.714Z,96.30
2022-11-05T02:28:18.237Z,96.30
2022-11-05T02:30:24.543Z,96.30
2022-11-05T02:31:37.925Z,96.30
2022-11-05T02:33:33.513Z,96.30
2022-11-05T02:34:48.884Z,96.30
2022-11-05T02:36:12.703Z,96.30
2022-11-05T02:37:24.458Z,96.30
2022-11-05T02:38:43.321Z,96.30
2022-11-05T02:39:52.063Z,96.30
2022-11-05T02:41:07.993Z,96.30
2022-11-05T02:42:24.308Z,96.30
2022-11-05T02:43:46.590Z,96.30
2022-11-05T02:45:01.002Z,96.30
2022-11-05T02:46:19.202Z,96.30
2022-11-05T02:47:29.718Z,96.30
2022-11-05T02:48:47.348Z,96.30
2022-11-05T02:50:02.209Z,96.30
2022-11-05T02:51:14.024Z,96.30
2022-11-05T02:52:21.613Z,96.30
2022-11-05T02:53:34.978Z,96.30
2022-11-05T02:54:46.570Z,96.30
2022-11-05T02:55:59.491Z,96.30
2022-11-05T02:57:03.877Z,96.30
2022-11-05T02:58:08.013Z,96.30
2022-11-05T02:59:10.603Z,96.30
2022-11-05T03:00:43.310Z,96.30
2022-11-05T03:01:48.462Z,96.30
2022-11-05T03:02:52.594Z,96.30
2022-11-05T03:04:00.544Z,96.30
2022-11-05T03:05:04.399Z,96.30
2022-11-05T03:06:32.131Z,96.30
2022-11-05T03:07:49.097Z,96.30
2022-11-05T03:09:27.544Z,96.30
2022-11-05T03:10:42.625Z,96.30
2022-11-05T03:12:00.186Z,96.30
2022-11-05T03:13:14.318Z,96.30
2022-11-05T03:14:25.632Z,96.30
2022-11-05T03:15:48.792Z,96.30
2022-11-05T03:17:00.244Z,96.30
2022-11-05T03:18:13.021Z,96.30
2022-11-05T03:19:25.283Z,96.30
2022-11-05T03:20:37.053Z,96.30
2022-11-05T03:21:48.839Z,96.30
2022-11-05T03:22:58.447Z,96.30
2022-11-05T03:24:10.186Z,96.30
2022-11-05T03:25:18.426Z,96.30
2022-11-05T03:26:27.648Z,96.30
2022-11-05T03:27:32.880Z,96.30
2022-11-05T03:28:39.876Z,96.30
2022-11-05T03:29:47.304Z,96.30
2022-11-05T03:30:53.727Z,96.30
2022-11-05T03:32:01.911Z,96.30
2022-11-05T03:33:13.079Z,96.30
2022-11-05T03:34:20.215Z,96.30
2022-11-05T03:35:28.102Z,96.30
2022-11-05T03:36:34.432Z,96.30
2022-11-05T03:37:41.657Z,96.30
2022-11-05T03:38:50.645Z,96.30
2022-11-05T03:40:00.085Z,96.30
2022-11-05T03:41:07.793Z,96.30
2022-11-05T03:42:16.895Z,96.30
2022-11-05T03:43:20.828Z,96.30
2022-11-05T03:44:29.798Z,96.30
2022-11-05T03:45:38.489Z,96.30
2022-11-05T03:46:47.934Z,96.30
2022-11-05T03:47:54.289Z,96.30
2022-11-05T03:49:00.264Z,96.30
2022-11-05T03:50:11.743Z,96.30
2022-11-05T03:51:26.691Z,96.30
2022-11-05T03:52:36.319Z,96.30
2022-11-05T03:53:48.157Z,96.30
2022-11-05T03:54:50.587Z,96.30
2022-11-05T03:56:00.515Z,96.30
2022-11-05T03:57:08.827Z,96.30
2022-11-05T03:58:14.352Z,96.30
2022-11-05T03:59:18.532Z,96.30
2022-11-05T04:00:24.851Z,96.30
2022-11-05T04:01:28.170Z,96.30
2022-11-05T04:02:32.848Z,96.30
2022-11-05T04:03:36.995Z,96.30
2022-11-05T04:04:43.255Z,96.30
2022-11-05T04:06:06.335Z,96.30
2022-11-05T04:07:28.950Z,96.30
2022-11-05T04:08:50.324Z,96.30
2022-11-05T04:10:11.287Z,96.30
2022-11-05T04:11:34.436Z,96.30
2022-11-05T04:12:55.283Z,96.30
2022-11-05T04:13:58.701Z,96.30
2022-11-05T04:15:01.279Z,96.30
2022-11-05T04:16:22.252Z,96.30
2022-11-05T04:17:25.720Z,96.30
2022-11-05T04:18:28.190Z,96.30
2022-11-05T04:19:50.621Z,96.30
2022-11-05T04:21:17.240Z,96.30
2022-11-05T04:22:38.353Z,96.30
2022-11-05T04:23:58.910Z,96.30
2022-11-05T04:25:02.228Z,96.30
2022-11-05T04:26:04.737Z,96.30
2022-11-05T04:27:11.250Z,96.30
2022-11-05T04:28:14.183Z,96.30
2022-11-05T04:29:34.918Z,96.30
2022-11-05T04:30:38.225Z,96.30
2022-11-05T04:31:40.630Z,96.30
2022-11-05T04:32:43.960Z,96.30
2022-11-05T04:33:47.278Z,96.30
2022-11-05T04:34:52.112Z,96.30
2022-11-05T04:35:54.435Z,96.30
2022-11-05T04:36:57.771Z,96.30
2022-11-05T04:38:00.660Z,96.30
2022-11-05T04:39:03.960Z,96.30
2022-11-05T04:40:08.178Z,96.30
2022-11-05T04:41:15.601Z,96.30
2022-11-05T04:42:18.115Z,96.30
2022-11-05T04:43:22.111Z,96.30
2022-11-05T04:44:25.739Z,96.30
2022-11-05T04:45:31.579Z,96.30
2022-11-05T04:46:37.297Z,96.30
2022-11-05T04:47:39.740Z,96.30
2022-11-05T04:48:43.161Z,96.30
2022-11-05T04:49:45.526Z,96.30
2022-11-05T04:50:50.477Z,96.30
2022-11-05T04:51:52.929Z,96.30
2022-11-05T04:52:56.372Z,96.30
2022-11-05T04:53:58.762Z,96.30
2022-11-05T04:55:02.073Z,96.30
2022-11-05T04:56:12.080Z,96.30
2022-11-05T04:57:15.477Z,96.30
2022-11-05T04:58:18.771Z,96.30
2022-11-05T04:59:21.372Z,96.30
2022-11-05T05:00:25.517Z,96.30
2022-11-05T05:01:28.043Z,96.30
2022-11-05T05:02:31.447Z,96.30
2022-11-05T05:03:33.988Z,96.30
2022-11-05T05:04:37.511Z,96.30
2022-11-05T05:05:39.829Z,96.30
2022-11-05T05:06:44.510Z,96.30
2022-11-05T05:07:46.894Z,96.30
2022-11-05T05:08:52.096Z,96.30
2022-11-05T05:09:57.334Z,96.30
2022-11-05T05:11:06.327Z,96.30
2022-11-05T05:12:08.810Z,96.30
2022-11-05T05:13:13.532Z,96.30
2022-11-05T05:14:16.013Z,96.30
2022-11-05T05:15:21.603Z,96.30
2022-11-05T05:16:27.040Z,96.30
2022-11-05T05:17:30.486Z,96.30
2022-11-05T05:18:33.011Z,96.30
2022-11-05T05:19:56.457Z,96.30
2022-11-05T05:21:17.608Z,96.30
2022-11-05T05:22:21.438Z,96.30
2022-11-05T05:23:23.762Z,96.30
2022-11-05T05:24:27.117Z,96.30
2022-11-05T05:25:29.567Z,96.30
2022-11-05T05:26:33.086Z,96.30
2022-11-05T05:27:35.518Z,96.30
2022-11-05T05:28:39.622Z,96.30
2022-11-05T05:29:42.050Z,96.30
2022-11-05T05:30:45.396Z,96.30
2022-11-05T05:31:47.740Z,96.30
2022-11-05T05:32:51.289Z,96.30
2022-11-05T05:33:54.608Z,96.30
2022-11-05T05:34:58.100Z,96.30
2022-11-05T05:36:04.662Z,96.30
2022-11-05T05:37:10.439Z,96.30
2022-11-05T05:38:14.196Z,96.30
2022-11-05T05:39:20.235Z,96.30
2022-11-05T05:40:23.056Z,96.30
2022-11-05T05:41:26.498Z,96.30
2022-11-05T05:42:28.807Z,96.30
2022-11-05T05:43:32.540Z,96.30
2022-11-05T05:44:35.025Z,96.30
2022-11-05T05:45:38.402Z,96.30
2022-11-05T05:46:40.797Z,96.30
2022-11-05T05:47:46.543Z,96.30
2022-11-05T05:48:53.338Z,96.30
2022-11-05T05:49:55.733Z,96.30
2022-11-05T05:51:02.862Z,96.30
2022-11-05T05:52:05.507Z,96.30
2022-11-05T05:53:09.505Z,96.30
2022-11-05T05:54:13.548Z,96.30
2022-11-05T05:55:17.099Z,96.30
2022-11-05T05:56:20.602Z,96.30
2022-11-05T05:57:24.002Z,96.30
2022-11-05T05:58:31.059Z,96.30
2022-11-05T05:59:34.396Z,96.30
2022-11-05T06:00:36.934Z,96.30
2022-11-05T06:01:40.809Z,96.30
2022-11-05T06:02:46.774Z,96.30
2022-11-05T06:03:49.898Z,96.30
2022-11-05T06:04:53.432Z,96.30
2022-11-05T06:06:01.214Z,96.30
2022-11-05T06:07:04.564Z,96.30
2022-11-05T06:08:06.977Z,96.30
2022-11-05T06:09:10.355Z,96.30
2022-11-05T06:10:14.211Z,96.30
2022-11-05T06:11:18.004Z,96.30
2022-11-05T06:12:20.318Z,96.30
2022-11-05T06:13:23.712Z,96.30
2022-11-05T06:14:27.301Z,96.30
2022-11-05T06:15:35.498Z,96.30
2022-11-05T06:16:39.545Z,96.30
2022-11-05T06:17:43.665Z,96.30
2022-11-05T06:18:47.829Z,96.30
2022-11-05T06:19:50.158Z,96.30
2022-11-05T06:20:53.729Z,96.30
2022-11-05T06:21:56.095Z,96.30
2022-11-05T06:22:59.646Z,96.30
2022-11-05T06:24:02.560Z,96.30
2022-11-05T06:25:07.793Z,96.30
2022-11-05T06:26:14.404Z,96.30
2022-11-05T06:27:17.745Z,96.30
2022-11-05T06:28:21.190Z,96.30
2022-11-05T06:29:23.812Z,96.30
2022-11-05T06:30:27.141Z,96.30
2022-11-05T06:31:29.526Z,96.30
2022-11-05T06:32:32.960Z,96.30
2022-11-05T06:33:35.637Z,96.30
2022-11-05T06:34:38.986Z,96.30
2022-11-05T06:35:42.390Z,96.30
2022-11-05T06:36:44.897Z,96.30
2022-11-05T06:37:48.303Z,96.30
2022-11-05T06:38:50.650Z,96.30
2022-11-05T06:39:54.238Z,96.30
2022-11-05T06:40:59.460Z,96.30
2022-11-05T06:42:17.981Z,96.30
2022-11-05T06:43:22.361Z,96.30
2022-11-05T06:44:24.920Z,96.30
2022-11-05T06:45:28.433Z,96.30
2022-11-05T06:46:30.836Z,96.30
2022-11-05T06:47:34.243Z,96.30
2022-11-05T06:48:36.857Z,96.30
2022-11-05T06:49:40.298Z,96.30
2022-11-05T06:50:44.933Z,96.30
2022-11-05T06:51:48.370Z,96.30
2022-11-05T06:52:55.277Z,96.30
2022-11-05T06:53:58.637Z,96.30
2022-11-05T06:55:01.567Z,96.30
2022-11-05T06:56:05.860Z,96.30
2022-11-05T06:57:11.040Z,96.30
2022-11-05T06:58:14.527Z,96.30
2022-11-05T06:59:17.150Z,96.30
2022-11-05T07:00:21.474Z,96.30
2022-11-05T07:01:24.026Z,96.30
2022-11-05T07:02:27.632Z,96.30
2022-11-05T07:03:30.503Z,96.30
2022-11-05T07:04:34.058Z,96.30
2022-11-05T07:05:40.349Z,96.30
2022-11-05T07:06:43.665Z,96.30
2022-11-05T07:07:46.390Z,96.30
2022-11-05T07:08:49.755Z,96.30
2022-11-05T07:09:52.798Z,96.30
2022-11-05T07:10:56.190Z,96.30
2022-11-05T07:11:58.585Z,96.30
2022-11-05T07:13:07.744Z,96.30
2022-11-05T07:14:12.003Z,96.30
2022-11-05T07:15:16.947Z,96.30
2022-11-05T07:16:20.386Z,96.30
2022-11-05T07:17:23.259Z,96.30
2022-11-05T07:18:26.649Z,96.30
2022-11-05T07:19:29.008Z,96.30
2022-11-05T07:20:34.212Z,96.30
2022-11-05T07:21:37.009Z,96.30
2022-11-05T07:22:40.394Z,96.30
2022-11-05T07:23:42.815Z,96.30
2022-11-05T07:24:47.342Z,96.30
2022-11-05T07:25:49.859Z,96.30
2022-11-05T07:26:53.884Z,96.30
2022-11-05T07:27:56.506Z,96.30
2022-11-05T07:29:01.435Z,96.30
2022-11-05T07:30:11.005Z,96.30
2022-11-05T07:31:13.364Z,96.30
2022-11-05T07:32:16.742Z,96.30
2022-11-05T07:33:20.279Z,96.30
2022-11-05T07:34:22.771Z,96.30
2022-11-05T07:35:26.457Z,96.30
2022-11-05T07:36:28.814Z,96.30
2022-11-05T07:37:32.183Z,96.30
2022-11-05T07:38:35.567Z,96.30
2022-11-05T07:39:38.009Z,96.30
2022-11-05T07:40:41.439Z,96.30
2022-11-05T07:41:43.870Z,96.30
2022-11-05T07:42:52.447Z,96.30
2022-11-05T07:43:57.129Z,96.30
2022-11-05T07:45:01.848Z,96.30
2022-11-05T07:46:04.350Z,96.30
2022-11-05T07:47:07.808Z,96.30
2022-11-05T07:48:12.653Z,96.30
2022-11-05T07:49:16.024Z,95.80
2022-11-05T07:50:21.637Z,95.50
2022-11-05T07:51:25.061Z,95.00
2022-11-05T07:52:27.445Z,94.20
2022-11-05T07:53:30.726Z,93.90
2022-11-05T07:54:33.159Z,93.30
2022-11-05T07:55:36.858Z,92.60
2022-11-05T07:56:41.552Z,92.70
2022-11-05T07:57:46.741Z,91.80
2022-11-05T07:58:49.403Z,91.50
2022-11-05T07:59:52.688Z,90.90
2022-11-05T08:00:58.771Z,90.80
2022-11-05T08:02:01.345Z,90.40
2022-11-05T08:03:09.024Z,90.20
2022-11-05T08:04:11.599Z,89.90
2022-11-05T08:05:17.417Z,89.30
2022-11-05T08:06:20.788Z,89.40
2022-11-05T08:07:23.195Z,89.40
2022-11-05T08:08:27.234Z,89.10
2022-11-05T08:09:30.575Z,88.90
2022-11-05T08:10:34.096Z,88.40
2022-11-05T08:11:37.463Z,88.60
2022-11-05T08:12:39.823Z,88.30
2022-11-05T08:13:44.200Z,88.90
2022-11-05T08:14:46.491Z,88.90
2022-11-05T08:15:49.868Z,89.20
2022-11-05T08:16:54.650Z,88.60
2022-11-05T08:18:00.788Z,88.70
2022-11-05T08:20:10.748Z,88.10
2022-11-05T08:21:14.110Z,88.00
2022-11-05T08:22:16.381Z,87.50
2022-11-05T08:23:19.823Z,87.40
2022-11-05T08:24:22.189Z,87.30
2022-11-05T08:25:25.975Z,87.10
2022-11-05T08:26:29.393Z,86.80
2022-11-05T08:27:31.669Z,86.80
2022-11-05T08:28:35.082Z,86.50
2022-11-05T08:29:37.786Z,86.50
2022-11-05T08:30:41.312Z,86.00
2022-11-05T08:31:45.791Z,85.80
2022-11-05T08:32:50.933Z,85.40
2022-11-05T08:35:06.980Z,84.60
2022-11-05T08:36:09.334Z,84.40
2022-11-05T08:37:12.781Z,84.30
2022-11-05T08:38:20.785Z,84.30
2022-11-05T08:39:23.251Z,84.20
2022-11-05T08:40:27.218Z,84.20
2022-11-05T08:41:29.702Z,83.70
2022-11-05T08:42:33.071Z,84.20
2022-11-05T08:43:35.434Z,84.10
2022-11-05T08:44:38.744Z,83.40
2022-11-05T08:45:42.341Z,83.10
2022-11-05T08:46:45.825Z,83.20
2022-11-05T08:47:49.571Z,82.50
2022-11-05T08:48:53.824Z,83.10
2022-11-05T08:49:56.276Z,82.50
2022-11-05T08:51:01.760Z,83.10
2022-11-05T08:52:04.829Z,83.00
2022-11-05T08:53:10.609Z,83.30
2022-11-05T08:54:14.397Z,83.40
2022-11-05T08:55:18.952Z,83.30
2022-11-05T08:56:23.295Z,83.90
2022-11-05T08:57:25.887Z,85.50
2022-11-05T08:58:29.293Z,85.30
2022-11-05T08:59:31.698Z,87.50
2022-11-05T09:00:38.196Z,88.50
2022-11-05T09:01:44.034Z,89.10
2022-11-05T09:02:46.596Z,89.60
2022-11-05T09:03:53.483Z,90.50
2022-11-05T09:04:55.883Z,91.80
2022-11-05T09:05:59.386Z,92.50
2022-11-05T09:07:01.740Z,93.60
2022-11-05T09:08:06.408Z,93.70
2022-11-05T09:09:09.786Z,94.30
2022-11-05T09:10:12.247Z,94.70
2022-11-05T09:11:15.833Z,95.80
2022-11-05T09:12:18.673Z,96.20
2022-11-05T09:13:23.002Z,96.20
2022-11-05T09:14:27.033Z,96.30
2022-11-05T09:15:31.131Z,96.30
2022-11-05T09:16:36.836Z,96.30
2022-11-05T09:17:41.078Z,96.30
2022-11-05T09:18:45.846Z,96.30
2022-11-05T09:19:50.945Z,96.30
2022-11-05T09:20:54.881Z,96.30
2022-11-05T09:21:59.408Z,96.30
2022-11-05T09:23:02.864Z,96.30
2022-11-05T09:24:06.874Z,96.30
2022-11-05T09:25:10.015Z,96.30
2022-11-05T09:26:14.673Z,96.30
2022-11-05T09:27:17.086Z,96.30
2022-11-05T09:28:23.739Z,96.30
2022-11-05T09:29:26.313Z,96.30
2022-11-05T09:30:29.666Z,96.30
2022-11-05T09:31:33.036Z,96.30
2022-11-05T09:32:35.380Z,96.30
2022-11-05T09:33:42.436Z,96.10
2022-11-05T09:34:45.239Z,96.30
2022-11-05T09:35:50.419Z,96.30
2022-11-05T09:36:52.818Z,96.30
2022-11-05T09:38:00.807Z,96.30
2022-11-05T09:39:05.498Z,96.30
2022-11-05T09:40:16.323Z,96.30
2022-11-05T09:41:28.765Z,96.30
2022-11-05T09:42:40.642Z,96.30
2022-11-05T09:43:49.708Z,96.30
2022-11-05T09:44:56.413Z,96.30
2022-11-05T09:46:04.579Z,96.30
2022-11-05T09:47:12.849Z,96.30
2022-11-05T09:48:20.047Z,96.30
2022-11-05T09:49:30.642Z,96.30
2022-11-05T09:50:40.360Z,96.30
2022-11-05T09:51:46.208Z,96.30
2022-11-05T09:52:49.862Z,96.30
2022-11-05T09:53:54.486Z,96.30
2022-11-05T09:54:58.259Z,96.30
2022-11-05T09:56:04.341Z,96.30
2022-11-05T09:57:14.428Z,96.30
2022-11-05T09:58:25.991Z,96.30
2022-11-05T09:59:38.635Z,96.30
2022-11-05T10:00:48.660Z,95.80
2022-11-05T10:01:55.462Z,96.10
2022-11-05T10:03:03.652Z,95.80
2022-11-05T10:04:14.622Z,95.80
2022-11-05T10:05:20.532Z,96.30
2022-11-05T10:06:26.293Z,96.20
2022-11-05T10:07:35.241Z,96.30
2022-11-05T10:08:43.447Z,96.30
2022-11-05T10:09:49.728Z,96.30
2022-11-05T10:10:56.678Z,96.30
2022-11-05T10:12:09.852Z,96.30
2022-11-05T10:13:24.263Z,96.30
2022-11-05T10:14:31.758Z,96.30
2022-11-05T10:15:39.428Z,96.30
2022-11-05T10:16:49.764Z,96.30
2022-11-05T10:17:56.861Z,96.30
2022-11-05T10:19:09.905Z,96.30
2022-11-05T10:20:24.674Z,96.30
2022-11-05T10:21:59.438Z,96.30
2022-11-05T10:22:59.611Z,96.30
2022-11-05T10:24:03.484Z,96.30
2022-11-05T10:25:18.318Z,96.30
2022-11-05T10:26:27.127Z,96.30
2022-11-05T10:27:36.717Z,96.30
2022-11-05T10:28:40.182Z,96.30
2022-11-05T10:29:49.469Z,96.30
2022-11-05T10:30:58.775Z,96.30
2022-11-05T10:32:05.738Z,96.30
2022-11-05T10:33:13.695Z,96.30
2022-11-05T10:34:17.939Z,96.30
2022-11-05T10:35:25.381Z,96.30
2022-11-05T10:36:36.208Z,96.30
2022-11-05T10:37:40.979Z,96.30
2022-11-05T10:38:45.962Z,96.30
2022-11-05T10:39:49.790Z,96.30
2022-11-05T10:41:06.277Z,96.30
2022-11-05T10:42:40.496Z,96.30
2022-11-05T10:43:49.202Z,96.30
2022-11-05T10:45:05.453Z,96.30
2022-11-05T10:46:26.877Z,96.30
2022-11-05T10:47:59.108Z,96.30
2022-11-05T10:49:18.916Z,96.30
2022-11-05T10:50:27.415Z,96.30
2022-11-05T10:51:32.952Z,96.30
2022-11-05T10:52:37.844Z,96.30
2022-11-05T10:53:45.024Z,96.30
2022-11-05T10:54:56.191Z,96.30
2022-11-05T10:56:01.547Z,96.30
2022-11-05T10:57:34.062Z,96.30
2022-11-05T10:58:42.053Z,96.30
2022-11-05T10:59:47.482Z,96.30
2022-11-05T11:01:09.133Z,96.30
2022-11-05T11:02:22.203Z,96.30
2022-11-05T11:03:46.771Z,96.30
2022-11-05T11:04:52.694Z,96.30
2022-11-05T11:06:02.192Z,96.30
2022-11-05T11:07:22.991Z,96.30
2022-11-05T11:08:25.823Z,96.30
2022-11-05T11:09:34.116Z,96.30
2022-11-05T11:10:42.489Z,96.30
2022-11-05T11:11:46.518Z,96.30
2022-11-05T11:12:50.259Z,96.30
2022-11-05T11:14:05.786Z,96.30
2022-11-05T11:15:15.793Z,96.30
2022-11-05T11:16:24.378Z,96.30
2022-11-05T11:17:28.699Z,96.30
2022-11-05T11:18:41.974Z,96.30
2022-11-05T11:19:44.518Z,96.30
2022-11-05T11:20:47.963Z,96.30
2022-11-05T11:22:22.708Z,96.30
2022-11-05T11:23:36.963Z,96.30
2022-11-05T11:24:41.337Z,96.30
2022-11-05T11:25:52.871Z,95.90
2022-11-05T11:27:04.089Z,95.90
2022-11-05T11:28:12.022Z,95.10
2022-11-05T11:29:25.628Z,94.90
2022-11-05T11:30:30.899Z,94.40
2022-11-05T11:31:39.170Z,94.30
2022-11-05T11:32:42.750Z,94.40
2022-11-05T11:33:50.356Z,93.90
2022-11-05T11:34:57.273Z,93.70
2022-11-05T11:36:01.295Z,93.50
2022-11-05T11:37:08.464Z,93.20
2022-11-05T11:38:17.099Z,92.30
2022-11-05T11:39:25.808Z,92.20
2022-11-05T11:40:32.947Z,91.80
2022-11-05T11:41:42.408Z,91.90
2022-11-05T11:42:48.372Z,91.60
2022-11-05T11:43:58.440Z,92.00
2022-11-05T11:45:07.593Z,92.30
2022-11-05T11:46:19.172Z,91.70
2022-11-05T11:47:23.143Z,91.30
2022-11-05T11:48:30.742Z,90.80
2022-11-05T11:49:46.397Z,90.40
2022-11-05T11:50:50.594Z,90.70
2022-11-05T11:52:00.841Z,89.50
2022-11-05T11:53:29.541Z,89.00
2022-11-05T11:54:33.533Z,88.30
2022-11-05T11:55:36.846Z,87.20
2022-11-05T11:56:49.333Z,86.50
2022-11-05T11:57:53.864Z,86.40
2022-11-05T11:59:02.161Z,85.70
2022-11-05T12:00:09.842Z,85.00
2022-11-05T12:02:01.642Z,85.10
2022-11-05T12:03:27.402Z,84.60
2022-11-05T12:04:55.330Z,85.80
2022-11-05T12:06:07.622Z,84.50
2022-11-05T12:07:23.070Z,84.10
2022-11-05T12:08:52.251Z,84.60
2022-11-05T12:10:40.446Z,83.40
2022-11-05T12:11:54.696Z,83.30
2022-11-05T12:13:32.638Z,82.30
2022-11-05T12:14:47.874Z,83.00
2022-11-05T12:15:54.178Z,82.20
2022-11-05T12:17:26.093Z,82.80
2022-11-05T12:18:43.175Z,84.50
2022-11-05T12:20:30.053Z,83.10
2022-11-05T12:21:53.337Z,82.70
2022-11-05T12:23:38.182Z,82.80
2022-11-05T12:25:22.515Z,82.50
2022-11-05T12:26:41.426Z,82.60
2022-11-05T12:28:19.451Z,81.90
2022-11-05T12:29:48.682Z,82.70
2022-11-05T12:31:04.032Z,81.10
2022-11-05T12:32:57.047Z,82.20
2022-11-05T12:34:19.142Z,81.50
2022-11-05T12:35:47.008Z,81.60
2022-11-05T12:37:12.495Z,81.40
2022-11-05T12:38:32.018Z,81.40
2022-11-05T12:39:53.761Z,81.60
2022-11-05T12:41:17.551Z,81.50
2022-11-05T12:42:39.680Z,81.50
2022-11-05T12:44:04.152Z,81.40
2022-11-05T12:45:30.878Z,81.50
2022-11-05T12:46:51.019Z,81.20
2022-11-05T12:48:14.703Z,81.20
2022-11-05T12:49:41.644Z,81.30
2022-11-05T12:50:50.832Z,82.00
2022-11-05T12:52:19.616Z,81.40
2022-11-05T12:53:48.257Z,81.50
2022-11-05T12:55:05.153Z,81.40
2022-11-05T12:56:14.165Z,81.50
2022-11-05T12:57:18.965Z,81.60
2022-11-05T12:58:30.202Z,81.60
2022-11-05T12:59:41.066Z,81.90
2022-11-05T13:00:50.952Z,81.80
2022-11-05T13:02:02.987Z,81.90
2022-11-05T13:03:25.796Z,82.10
2022-11-05T13:04:37.958Z,82.10
2022-11-05T13:05:45.448Z,82.40
2022-11-05T13:06:53.299Z,82.60
2022-11-05T13:08:04.677Z,82.50
2022-11-05T13:09:19.232Z,82.40
2022-11-05T13:10:30.273Z,82.40
2022-11-05T13:11:42.454Z,82.40
2022-11-05T13:12:49.122Z,83.10
2022-11-05T13:14:07.386Z,82.20
2022-11-05T13:15:27.288Z,82.20
2022-11-05T13:16:34.455Z,82.50
2022-11-05T13:17:49.514Z,82.40
2022-11-05T13:19:01.018Z,82.10
2022-11-05T13:20:17.365Z,82.10
2022-11-05T13:21:24.182Z,82.70
2022-11-05T13:22:37.554Z,82.80
2022-11-05T13:23:46.644Z,82.80
2022-11-05T13:24:51.086Z,82.70
2022-11-05T13:25:59.346Z,82.90
2022-11-05T13:27:31.859Z,82.80
2022-11-05T13:28:46.853Z,82.60
2022-11-05T13:29:53.734Z,82.90
2022-11-05T13:31:03.137Z,82.30
2022-11-05T13:32:29.470Z,82.50
2022-11-05T13:33:34.884Z,82.40
2022-11-05T13:34:38.377Z,82.10
2022-11-05T13:35:45.257Z,82.40
2022-11-05T13:37:14.294Z,82.30
2022-11-05T13:38:49.109Z,82.30
2022-11-05T13:39:57.368Z,82.10
2022-11-05T13:41:20.716Z,81.80
2022-11-05T13:43:15.919Z,81.90
2022-11-05T13:44:38.130Z,81.90
2022-11-05T13:46:17.259Z,82.30
2022-11-05T13:47:47.695Z,82.20
2022-11-05T13:49:16.631Z,82.20
2022-11-05T13:50:43.614Z,82.50
2022-11-05T13:51:57.780Z,82.80
2022-11-05T13:53:47.051Z,82.50
2022-11-05T13:55:27.462Z,82.70
2022-11-05T13:56:54.652Z,82.80
2022-11-05T13:58:37.214Z,83.00
2022-11-05T14:00:15.704Z,83.40
2022-11-05T14:01:38.688Z,83.40
2022-11-05T14:02:46.529Z,83.60
2022-11-05T14:03:51.634Z,83.20
2022-11-05T14:05:01.058Z,83.60
2022-11-05T14:06:09.758Z,83.60
2022-11-05T14:07:19.540Z,83.90
2022-11-05T14:08:26.939Z,83.70
2022-11-05T14:09:30.415Z,83.80
2022-11-05T14:10:39.662Z,83.80
2022-11-05T14:11:48.482Z,84.00
2022-11-05T14:12:55.374Z,84.10
2022-11-05T14:14:01.517Z,84.20
2022-11-05T14:15:09.639Z,84.30
2022-11-05T14:16:21.525Z,84.20
2022-11-05T14:17:34.413Z,84.40
2022-11-05T14:18:46.202Z,84.60
2022-11-05T14:20:11.313Z,84.60
2022-11-05T14:21:48.279Z,84.70
2022-11-05T14:22:50.740Z,84.80
2022-11-05T14:23:55.880Z,84.90
2022-11-05T14:24:58.960Z,85.00
2022-11-05T14:26:25.401Z,85.10
2022-11-05T14:27:43.910Z,85.20
2022-11-05T14:29:13.168Z,85.20
2022-11-05T14:30:43.191Z,85.20
2022-11-05T14:32:13.320Z,85.30
2022-11-05T14:33:34.285Z,85.40
2022-11-05T14:34:48.884Z,85.50
2022-11-05T14:35:52.188Z,85.60
2022-11-05T14:37:23.930Z,85.70
2022-11-05T14:38:29.996Z,85.90
2022-11-05T14:39:32.971Z,86.00
2022-11-05T14:40:42.325Z,86.10
2022-11-05T14:42:04.411Z,86.10
2022-11-05T14:43:20.540Z,86.20
2022-11-05T14:44:24.321Z,86.30
2022-11-05T14:45:33.661Z,86.30
2022-11-05T14:46:45.197Z,86.30
2022-11-05T14:47:56.255Z,86.50
2022-11-05T14:49:09.268Z,86.60
2022-11-05T14:50:21.114Z,86.70
2022-11-05T14:51:29.499Z,86.80
2022-11-05T14:52:33.676Z,86.70
2022-11-05T14:53:40.338Z,86.80
2022-11-05T14:54:49.060Z,86.80
2022-11-05T14:56:02.735Z,86.90
2022-11-05T14:57:05.175Z,87.00
2022-11-05T14:58:32.070Z,87.00